sensor_id;sensor_type;location;lat;lon;timestamp;P1;durP1;ratioP1;P2;durP2;ratioP2
66189;SDS011;52992;52.084;5.412;2023-01-29T00:01:51;23.93;;;12.67;;
66189;SDS011;52992;52.084;5.412;2023-01-29T00:04:18;25.20;;;12.00;;
66189;SDS011;52992;52.084;5.412;2023-01-29T00:06:45;27.33;;;14.20;;
66189;SDS011;52992;52.084;5.412;2023-01-29T00:09:12;23.63;;;12.63;;
66189;SDS011;52992;52.084;5.412;2023-01-29T00:11:39;22.73;;;11.97;;
66189;SDS011;52992;52.084;5.412;2023-01-29T00:14:06;26.83;;;12.63;;
66189;SDS011;52992;52.084;5.412;2023-01-29T00:16:33;24.47;;;11.87;;
66189;SDS011;52992;52.084;5.412;2023-01-29T00:19:00;27.50;;;13.77;;
66189;SDS011;52992;52.084;5.412;2023-01-29T00:21:28;24.70;;;12.83;;
66189;SDS011;52992;52.084;5.412;2023-01-29T00:23:58;26.17;;;12.87;;
66189;SDS011;52992;52.084;5.412;2023-01-29T00:26:26;24.53;;;13.27;;
66189;SDS011;52992;52.084;5.412;2023-01-29T00:28:53;26.43;;;13.27;;
66189;SDS011;52992;52.084;5.412;2023-01-29T00:31:24;23.97;;;12.20;;
66189;SDS011;52992;52.084;5.412;2023-01-29T00:33:51;28.87;;;13.27;;
66189;SDS011;52992;52.084;5.412;2023-01-29T00:36:19;28.00;;;13.37;;
66189;SDS011;52992;52.084;5.412;2023-01-29T00:38:52;22.57;;;12.40;;
66189;SDS011;52992;52.084;5.412;2023-01-29T00:41:28;23.53;;;11.97;;
66189;SDS011;52992;52.084;5.412;2023-01-29T00:44:16;25.83;;;13.43;;
66189;SDS011;52992;52.084;5.412;2023-01-29T00:47:02;28.53;;;13.60;;
66189;SDS011;52992;52.084;5.412;2023-01-29T00:49:50;24.67;;;12.77;;
66189;SDS011;52992;52.084;5.412;2023-01-29T00:52:17;23.20;;;13.30;;
66189;SDS011;52992;52.084;5.412;2023-01-29T00:54:50;36.00;;;19.10;;
66189;SDS011;52992;52.084;5.412;2023-01-29T00:57:22;31.97;;;17.87;;
66189;SDS011;52992;52.084;5.412;2023-01-29T00:59:51;31.73;;;17.93;;
66189;SDS011;52992;52.084;5.412;2023-01-29T01:02:18;30.77;;;14.37;;
66189;SDS011;52992;52.084;5.412;2023-01-29T01:05:05;24.73;;;13.40;;
66189;SDS011;52992;52.084;5.412;2023-01-29T01:07:35;28.33;;;16.63;;
66189;SDS011;52992;52.084;5.412;2023-01-29T01:10:02;26.33;;;13.40;;
66189;SDS011;52992;52.084;5.412;2023-01-29T01:15:22;28.53;;;13.43;;
66189;SDS011;52992;52.084;5.412;2023-01-29T01:17:54;23.90;;;12.37;;
66189;SDS011;52992;52.084;5.412;2023-01-29T01:20:24;27.63;;;13.07;;
66189;SDS011;52992;52.084;5.412;2023-01-29T01:22:52;24.00;;;12.77;;
66189;SDS011;52992;52.084;5.412;2023-01-29T01:25:21;23.80;;;12.40;;
66189;SDS011;52992;52.084;5.412;2023-01-29T01:27:53;25.27;;;13.27;;
66189;SDS011;52992;52.084;5.412;2023-01-29T01:30:22;24.60;;;12.67;;
66189;SDS011;52992;52.084;5.412;2023-01-29T01:32:50;25.87;;;12.50;;
66189;SDS011;52992;52.084;5.412;2023-01-29T01:35:17;21.13;;;11.57;;
66189;SDS011;52992;52.084;5.412;2023-01-29T01:37:43;20.33;;;11.27;;
66189;SDS011;52992;52.084;5.412;2023-01-29T01:40:12;25.67;;;12.43;;
66189;SDS011;52992;52.084;5.412;2023-01-29T01:42:44;22.70;;;11.93;;
66189;SDS011;52992;52.084;5.412;2023-01-29T01:45:17;23.13;;;11.90;;
66189;SDS011;52992;52.084;5.412;2023-01-29T01:47:47;20.73;;;11.33;;
66189;SDS011;52992;52.084;5.412;2023-01-29T01:50:19;25.70;;;12.27;;
66189;SDS011;52992;52.084;5.412;2023-01-29T01:52:54;26.47;;;11.97;;
66189;SDS011;52992;52.084;5.412;2023-01-29T01:55:37;24.57;;;12.53;;
66189;SDS011;52992;52.084;5.412;2023-01-29T01:58:12;23.27;;;11.70;;
66189;SDS011;52992;52.084;5.412;2023-01-29T02:01:04;24.57;;;11.87;;
66189;SDS011;52992;52.084;5.412;2023-01-29T02:03:38;22.10;;;11.80;;
66189;SDS011;52992;52.084;5.412;2023-01-29T02:06:29;22.37;;;12.37;;
66189;SDS011;52992;52.084;5.412;2023-01-29T02:09:17;26.47;;;12.43;;
66189;SDS011;52992;52.084;5.412;2023-01-29T02:12:02;25.83;;;12.87;;
66189;SDS011;52992;52.084;5.412;2023-01-29T02:14:39;23.33;;;12.47;;
66189;SDS011;52992;52.084;5.412;2023-01-29T02:17:10;23.30;;;12.67;;
66189;SDS011;52992;52.084;5.412;2023-01-29T02:25:41;21.53;;;11.57;;
66189;SDS011;52992;52.084;5.412;2023-01-29T02:31:25;23.73;;;12.03;;
66189;SDS011;52992;52.084;5.412;2023-01-29T02:39:24;21.03;;;11.77;;
66189;SDS011;52992;52.084;5.412;2023-01-29T02:42:26;23.77;;;11.87;;
66189;SDS011;52992;52.084;5.412;2023-01-29T02:45:09;23.17;;;12.53;;
66189;SDS011;52992;52.084;5.412;2023-01-29T02:47:49;26.90;;;13.00;;
66189;SDS011;52992;52.084;5.412;2023-01-29T02:53:05;22.90;;;12.53;;
66189;SDS011;52992;52.084;5.412;2023-01-29T02:55:55;20.83;;;11.80;;
66189;SDS011;52992;52.084;5.412;2023-01-29T03:01:27;27.03;;;13.10;;
66189;SDS011;52992;52.084;5.412;2023-01-29T03:04:00;24.73;;;12.73;;
66189;SDS011;52992;52.084;5.412;2023-01-29T03:06:34;28.10;;;13.07;;
66189;SDS011;52992;52.084;5.412;2023-01-29T03:09:06;26.73;;;12.87;;
66189;SDS011;52992;52.084;5.412;2023-01-29T03:12:12;28.73;;;13.23;;
66189;SDS011;52992;52.084;5.412;2023-01-29T03:15:01;23.60;;;11.60;;
66189;SDS011;52992;52.084;5.412;2023-01-29T03:20:23;25.90;;;12.70;;
66189;SDS011;52992;52.084;5.412;2023-01-29T03:23:00;29.27;;;13.67;;
66189;SDS011;52992;52.084;5.412;2023-01-29T03:25:35;28.43;;;13.83;;
66189;SDS011;52992;52.084;5.412;2023-01-29T03:28:28;24.40;;;12.53;;
66189;SDS011;52992;52.084;5.412;2023-01-29T03:31:14;25.13;;;12.23;;
66189;SDS011;52992;52.084;5.412;2023-01-29T03:34:05;25.20;;;13.43;;
66189;SDS011;52992;52.084;5.412;2023-01-29T03:36:43;25.87;;;12.60;;
66189;SDS011;52992;52.084;5.412;2023-01-29T03:39:21;28.03;;;13.63;;
66189;SDS011;52992;52.084;5.412;2023-01-29T03:41:55;25.77;;;12.57;;
66189;SDS011;52992;52.084;5.412;2023-01-29T03:47:45;26.13;;;13.10;;
66189;SDS011;52992;52.084;5.412;2023-01-29T03:55:48;24.27;;;12.87;;
66189;SDS011;52992;52.084;5.412;2023-01-29T03:58:28;27.73;;;13.77;;
66189;SDS011;52992;52.084;5.412;2023-01-29T04:01:02;22.40;;;12.20;;
66189;SDS011;52992;52.084;5.412;2023-01-29T04:06:33;22.60;;;12.97;;
66189;SDS011;52992;52.084;5.412;2023-01-29T04:09:22;27.33;;;14.00;;
66189;SDS011;52992;52.084;5.412;2023-01-29T04:12:07;25.57;;;14.50;;
66189;SDS011;52992;52.084;5.412;2023-01-29T04:14:37;28.37;;;14.30;;
66189;SDS011;52992;52.084;5.412;2023-01-29T04:17:10;27.60;;;14.40;;
66189;SDS011;52992;52.084;5.412;2023-01-29T04:19:51;28.53;;;13.83;;
66189;SDS011;52992;52.084;5.412;2023-01-29T04:22:20;25.47;;;14.27;;
66189;SDS011;52992;52.084;5.412;2023-01-29T04:24:56;30.60;;;15.13;;
66189;SDS011;52992;52.084;5.412;2023-01-29T04:27:32;29.33;;;14.53;;
66189;SDS011;52992;52.084;5.412;2023-01-29T04:30:14;26.57;;;14.13;;
66189;SDS011;52992;52.084;5.412;2023-01-29T04:33:02;27.30;;;13.87;;
66189;SDS011;52992;52.084;5.412;2023-01-29T04:35:49;27.80;;;13.40;;
66189;SDS011;52992;52.084;5.412;2023-01-29T04:43:57;32.00;;;14.67;;
66189;SDS011;52992;52.084;5.412;2023-01-29T04:52:51;28.33;;;15.10;;
66189;SDS011;52992;52.084;5.412;2023-01-29T04:58:07;26.80;;;14.70;;
66189;SDS011;52992;52.084;5.412;2023-01-29T05:00:41;28.07;;;13.30;;
66189;SDS011;52992;52.084;5.412;2023-01-29T05:03:10;29.10;;;14.80;;
66189;SDS011;52992;52.084;5.412;2023-01-29T05:05:39;28.87;;;15.47;;
66189;SDS011;52992;52.084;5.412;2023-01-29T05:08:11;29.03;;;14.53;;
66189;SDS011;52992;52.084;5.412;2023-01-29T05:10:41;28.73;;;14.57;;
66189;SDS011;52992;52.084;5.412;2023-01-29T05:13:09;29.60;;;14.50;;
66189;SDS011;52992;52.084;5.412;2023-01-29T05:15:39;28.17;;;13.87;;
66189;SDS011;52992;52.084;5.412;2023-01-29T05:18:10;26.63;;;14.73;;
66189;SDS011;52992;52.084;5.412;2023-01-29T05:20:37;29.97;;;14.97;;
66189;SDS011;52992;52.084;5.412;2023-01-29T05:23:14;24.83;;;14.30;;
66189;SDS011;52992;52.084;5.412;2023-01-29T05:25:44;24.33;;;13.27;;
66189;SDS011;52992;52.084;5.412;2023-01-29T05:28:12;27.83;;;14.30;;
66189;SDS011;52992;52.084;5.412;2023-01-29T05:30:52;30.47;;;15.10;;
66189;SDS011;52992;52.084;5.412;2023-01-29T05:33:22;29.93;;;14.17;;
66189;SDS011;52992;52.084;5.412;2023-01-29T05:35:50;29.47;;;14.73;;
66189;SDS011;52992;52.084;5.412;2023-01-29T05:38:18;26.93;;;14.03;;
66189;SDS011;52992;52.084;5.412;2023-01-29T05:40:45;28.30;;;14.87;;
66189;SDS011;52992;52.084;5.412;2023-01-29T05:43:16;26.63;;;14.43;;
66189;SDS011;52992;52.084;5.412;2023-01-29T05:45:52;27.40;;;14.13;;
66189;SDS011;52992;52.084;5.412;2023-01-29T05:48:20;31.80;;;14.13;;
66189;SDS011;52992;52.084;5.412;2023-01-29T05:50:47;27.70;;;14.33;;
66189;SDS011;52992;52.084;5.412;2023-01-29T05:53:15;33.73;;;15.43;;
66189;SDS011;52992;52.084;5.412;2023-01-29T05:55:45;28.67;;;14.67;;
66189;SDS011;52992;52.084;5.412;2023-01-29T05:58:12;26.77;;;13.40;;
66189;SDS011;52992;52.084;5.412;2023-01-29T06:00:39;24.80;;;14.37;;
66189;SDS011;52992;52.084;5.412;2023-01-29T06:03:06;25.47;;;14.40;;
66189;SDS011;52992;52.084;5.412;2023-01-29T06:05:36;28.67;;;14.63;;
66189;SDS011;52992;52.084;5.412;2023-01-29T06:08:04;30.60;;;15.20;;
66189;SDS011;52992;52.084;5.412;2023-01-29T06:10:31;25.97;;;14.40;;
66189;SDS011;52992;52.084;5.412;2023-01-29T06:12:58;27.47;;;14.70;;
66189;SDS011;52992;52.084;5.412;2023-01-29T06:15:24;30.83;;;15.20;;
66189;SDS011;52992;52.084;5.412;2023-01-29T06:17:52;29.13;;;15.37;;
66189;SDS011;52992;52.084;5.412;2023-01-29T06:20:19;27.50;;;15.57;;
66189;SDS011;52992;52.084;5.412;2023-01-29T06:22:46;31.27;;;14.47;;
66189;SDS011;52992;52.084;5.412;2023-01-29T06:25:13;27.20;;;14.03;;
66189;SDS011;52992;52.084;5.412;2023-01-29T06:27:40;28.23;;;16.20;;
66189;SDS011;52992;52.084;5.412;2023-01-29T06:30:07;25.77;;;13.80;;
66189;SDS011;52992;52.084;5.412;2023-01-29T06:32:34;25.03;;;15.20;;
66189;SDS011;52992;52.084;5.412;2023-01-29T06:35:01;25.27;;;13.57;;
66189;SDS011;52992;52.084;5.412;2023-01-29T06:37:28;27.33;;;14.97;;
66189;SDS011;52992;52.084;5.412;2023-01-29T06:39:55;28.03;;;14.93;;
66189;SDS011;52992;52.084;5.412;2023-01-29T06:42:22;28.70;;;14.60;;
66189;SDS011;52992;52.084;5.412;2023-01-29T06:44:53;25.23;;;13.60;;
66189;SDS011;52992;52.084;5.412;2023-01-29T06:47:21;29.57;;;14.63;;
66189;SDS011;52992;52.084;5.412;2023-01-29T06:49:49;26.17;;;13.70;;
66189;SDS011;52992;52.084;5.412;2023-01-29T06:52:16;24.10;;;13.97;;
66189;SDS011;52992;52.084;5.412;2023-01-29T06:54:43;26.50;;;13.63;;
66189;SDS011;52992;52.084;5.412;2023-01-29T06:57:09;24.83;;;14.13;;
66189;SDS011;52992;52.084;5.412;2023-01-29T06:59:36;22.97;;;13.20;;
66189;SDS011;52992;52.084;5.412;2023-01-29T07:02:03;27.70;;;14.90;;
66189;SDS011;52992;52.084;5.412;2023-01-29T07:04:30;25.00;;;14.53;;
66189;SDS011;52992;52.084;5.412;2023-01-29T07:06:58;27.43;;;13.80;;
66189;SDS011;52992;52.084;5.412;2023-01-29T07:09:25;28.80;;;15.10;;
66189;SDS011;52992;52.084;5.412;2023-01-29T07:11:52;26.93;;;14.23;;
66189;SDS011;52992;52.084;5.412;2023-01-29T07:14:19;25.70;;;13.83;;
66189;SDS011;52992;52.084;5.412;2023-01-29T07:16:45;25.80;;;13.47;;
66189;SDS011;52992;52.084;5.412;2023-01-29T07:19:12;25.37;;;14.43;;
66189;SDS011;52992;52.084;5.412;2023-01-29T07:21:39;25.40;;;14.13;;
66189;SDS011;52992;52.084;5.412;2023-01-29T07:24:06;25.07;;;14.03;;
66189;SDS011;52992;52.084;5.412;2023-01-29T07:26:33;24.47;;;14.33;;
66189;SDS011;52992;52.084;5.412;2023-01-29T07:29:01;27.90;;;14.17;;
66189;SDS011;52992;52.084;5.412;2023-01-29T07:31:29;26.47;;;13.87;;
66189;SDS011;52992;52.084;5.412;2023-01-29T07:33:57;26.33;;;13.50;;
66189;SDS011;52992;52.084;5.412;2023-01-29T07:36:24;26.27;;;14.93;;
66189;SDS011;52992;52.084;5.412;2023-01-29T07:38:52;25.23;;;13.40;;
66189;SDS011;52992;52.084;5.412;2023-01-29T07:41:19;28.70;;;14.90;;
66189;SDS011;52992;52.084;5.412;2023-01-29T07:43:46;32.30;;;14.23;;
66189;SDS011;52992;52.084;5.412;2023-01-29T07:46:13;33.97;;;13.87;;
66189;SDS011;52992;52.084;5.412;2023-01-29T07:48:40;27.07;;;14.93;;
66189;SDS011;52992;52.084;5.412;2023-01-29T07:51:07;25.93;;;14.67;;
66189;SDS011;52992;52.084;5.412;2023-01-29T07:53:34;27.77;;;14.47;;
66189;SDS011;52992;52.084;5.412;2023-01-29T07:56:02;23.23;;;14.33;;
66189;SDS011;52992;52.084;5.412;2023-01-29T07:58:29;23.80;;;13.60;;
66189;SDS011;52992;52.084;5.412;2023-01-29T08:00:56;23.43;;;13.43;;
66189;SDS011;52992;52.084;5.412;2023-01-29T08:03:23;24.50;;;13.63;;
66189;SDS011;52992;52.084;5.412;2023-01-29T08:05:50;24.73;;;14.73;;
66189;SDS011;52992;52.084;5.412;2023-01-29T08:08:17;26.70;;;14.23;;
66189;SDS011;52992;52.084;5.412;2023-01-29T08:10:44;26.00;;;13.87;;
66189;SDS011;52992;52.084;5.412;2023-01-29T08:13:11;24.40;;;12.97;;
66189;SDS011;52992;52.084;5.412;2023-01-29T08:15:41;23.70;;;12.43;;
66189;SDS011;52992;52.084;5.412;2023-01-29T08:18:11;22.93;;;13.17;;
66189;SDS011;52992;52.084;5.412;2023-01-29T08:20:39;24.80;;;13.40;;
66189;SDS011;52992;52.084;5.412;2023-01-29T08:23:08;25.17;;;14.67;;
66189;SDS011;52992;52.084;5.412;2023-01-29T08:25:38;26.87;;;14.47;;
66189;SDS011;52992;52.084;5.412;2023-01-29T08:28:06;26.17;;;13.63;;
66189;SDS011;52992;52.084;5.412;2023-01-29T08:30:33;25.00;;;13.33;;
66189;SDS011;52992;52.084;5.412;2023-01-29T08:33:00;26.47;;;14.37;;
66189;SDS011;52992;52.084;5.412;2023-01-29T08:35:29;28.50;;;13.17;;
66189;SDS011;52992;52.084;5.412;2023-01-29T08:38:00;22.13;;;12.83;;
66189;SDS011;52992;52.084;5.412;2023-01-29T08:40:29;25.20;;;13.93;;
66189;SDS011;52992;52.084;5.412;2023-01-29T08:42:58;29.73;;;14.90;;
66189;SDS011;52992;52.084;5.412;2023-01-29T08:45:28;25.13;;;14.17;;
66189;SDS011;52992;52.084;5.412;2023-01-29T08:47:55;26.23;;;14.53;;
66189;SDS011;52992;52.084;5.412;2023-01-29T08:50:22;29.63;;;15.23;;
66189;SDS011;52992;52.084;5.412;2023-01-29T08:52:49;30.93;;;14.30;;
66189;SDS011;52992;52.084;5.412;2023-01-29T08:55:16;24.83;;;13.67;;
66189;SDS011;52992;52.084;5.412;2023-01-29T08:57:44;27.63;;;12.73;;
66189;SDS011;52992;52.084;5.412;2023-01-29T09:00:10;25.87;;;14.00;;
66189;SDS011;52992;52.084;5.412;2023-01-29T09:02:38;26.33;;;13.73;;
66189;SDS011;52992;52.084;5.412;2023-01-29T09:05:05;24.10;;;14.03;;
66189;SDS011;52992;52.084;5.412;2023-01-29T09:07:32;25.10;;;13.83;;
66189;SDS011;52992;52.084;5.412;2023-01-29T09:09:59;24.27;;;13.60;;
66189;SDS011;52992;52.084;5.412;2023-01-29T09:12:26;27.80;;;13.83;;
66189;SDS011;52992;52.084;5.412;2023-01-29T09:14:53;22.10;;;13.23;;
66189;SDS011;52992;52.084;5.412;2023-01-29T09:17:20;26.77;;;14.10;;
66189;SDS011;52992;52.084;5.412;2023-01-29T09:19:47;27.87;;;14.10;;
66189;SDS011;52992;52.084;5.412;2023-01-29T09:22:13;24.10;;;14.03;;
66189;SDS011;52992;52.084;5.412;2023-01-29T09:24:40;29.13;;;15.40;;
66189;SDS011;52992;52.084;5.412;2023-01-29T09:27:07;26.77;;;14.07;;
66189;SDS011;52992;52.084;5.412;2023-01-29T09:29:35;25.90;;;13.80;;
66189;SDS011;52992;52.084;5.412;2023-01-29T09:32:02;24.40;;;13.70;;
66189;SDS011;52992;52.084;5.412;2023-01-29T09:34:30;25.97;;;13.33;;
66189;SDS011;52992;52.084;5.412;2023-01-29T09:36:57;28.27;;;14.53;;
66189;SDS011;52992;52.084;5.412;2023-01-29T09:39:24;24.60;;;13.47;;
66189;SDS011;52992;52.084;5.412;2023-01-29T09:47:18;26.23;;;14.47;;
66189;SDS011;52992;52.084;5.412;2023-01-29T09:49:47;30.27;;;14.43;;
66189;SDS011;52992;52.084;5.412;2023-01-29T09:52:24;24.97;;;13.47;;
66189;SDS011;52992;52.084;5.412;2023-01-29T09:57:34;23.03;;;14.47;;
66189;SDS011;52992;52.084;5.412;2023-01-29T10:00:15;21.67;;;12.97;;
66189;SDS011;52992;52.084;5.412;2023-01-29T10:02:52;27.73;;;14.67;;
66189;SDS011;52992;52.084;5.412;2023-01-29T10:06:14;23.17;;;13.53;;
66189;SDS011;52992;52.084;5.412;2023-01-29T10:08:39;27.27;;;13.67;;
66189;SDS011;52992;52.084;5.412;2023-01-29T10:16:42;22.23;;;12.77;;
66189;SDS011;52992;52.084;5.412;2023-01-29T10:25:18;22.90;;;13.93;;
66189;SDS011;52992;52.084;5.412;2023-01-29T10:27:32;27.77;;;14.83;;
66189;SDS011;52992;52.084;5.412;2023-01-29T10:30:05;25.17;;;14.97;;
66189;SDS011;52992;52.084;5.412;2023-01-29T10:32:37;23.63;;;13.80;;
66189;SDS011;52992;52.084;5.412;2023-01-29T10:35:11;21.97;;;12.57;;
66189;SDS011;52992;52.084;5.412;2023-01-29T10:37:52;23.17;;;13.10;;
66189;SDS011;52992;52.084;5.412;2023-01-29T10:43:09;22.47;;;13.73;;
66189;SDS011;52992;52.084;5.412;2023-01-29T10:46:19;25.97;;;13.40;;
66189;SDS011;52992;52.084;5.412;2023-01-29T10:51:51;24.53;;;13.67;;
66189;SDS011;52992;52.084;5.412;2023-01-29T11:02:50;26.90;;;13.93;;
66189;SDS011;52992;52.084;5.412;2023-01-29T11:05:25;24.60;;;14.03;;
66189;SDS011;52992;52.084;5.412;2023-01-29T11:08:07;27.97;;;15.27;;
66189;SDS011;52992;52.084;5.412;2023-01-29T11:13:37;30.73;;;15.77;;
66189;SDS011;52992;52.084;5.412;2023-01-29T11:16:14;23.63;;;13.40;;
66189;SDS011;52992;52.084;5.412;2023-01-29T11:18:54;24.33;;;14.80;;
66189;SDS011;52992;52.084;5.412;2023-01-29T11:21:23;28.97;;;15.13;;
66189;SDS011;52992;52.084;5.412;2023-01-29T11:24:04;23.80;;;13.73;;
66189;SDS011;52992;52.084;5.412;2023-01-29T11:26:33;29.30;;;15.13;;
66189;SDS011;52992;52.084;5.412;2023-01-29T11:29:03;31.40;;;15.10;;
66189;SDS011;52992;52.084;5.412;2023-01-29T11:31:36;26.93;;;15.33;;
66189;SDS011;52992;52.084;5.412;2023-01-29T11:34:11;29.30;;;15.77;;
66189;SDS011;52992;52.084;5.412;2023-01-29T11:36:44;28.37;;;15.33;;
66189;SDS011;52992;52.084;5.412;2023-01-29T11:39:18;29.63;;;15.33;;
66189;SDS011;52992;52.084;5.412;2023-01-29T11:42:02;27.47;;;14.67;;
66189;SDS011;52992;52.084;5.412;2023-01-29T11:44:34;30.20;;;15.33;;
66189;SDS011;52992;52.084;5.412;2023-01-29T11:49:49;27.40;;;15.07;;
66189;SDS011;52992;52.084;5.412;2023-01-29T11:52:19;31.27;;;16.00;;
66189;SDS011;52992;52.084;5.412;2023-01-29T11:54:50;29.03;;;16.00;;
66189;SDS011;52992;52.084;5.412;2023-01-29T11:57:30;35.20;;;18.00;;
66189;SDS011;52992;52.084;5.412;2023-01-29T12:00:02;26.33;;;15.23;;
66189;SDS011;52992;52.084;5.412;2023-01-29T12:02:36;27.73;;;15.73;;
66189;SDS011;52992;52.084;5.412;2023-01-29T12:05:13;32.73;;;17.20;;
66189;SDS011;52992;52.084;5.412;2023-01-29T12:07:42;33.43;;;17.20;;
66189;SDS011;52992;52.084;5.412;2023-01-29T12:10:45;32.07;;;16.40;;
66189;SDS011;52992;52.084;5.412;2023-01-29T12:13:24;31.97;;;16.20;;
66189;SDS011;52992;52.084;5.412;2023-01-29T12:16:04;30.40;;;15.83;;
66189;SDS011;52992;52.084;5.412;2023-01-29T12:18:42;32.53;;;16.37;;
66189;SDS011;52992;52.084;5.412;2023-01-29T12:21:15;31.53;;;16.83;;
66189;SDS011;52992;52.084;5.412;2023-01-29T12:23:46;28.70;;;15.63;;
66189;SDS011;52992;52.084;5.412;2023-01-29T12:26:23;35.37;;;17.60;;
66189;SDS011;52992;52.084;5.412;2023-01-29T12:31:35;30.13;;;15.90;;
66189;SDS011;52992;52.084;5.412;2023-01-29T12:37:02;33.40;;;17.40;;
66189;SDS011;52992;52.084;5.412;2023-01-29T12:39:39;36.70;;;17.83;;
66189;SDS011;52992;52.084;5.412;2023-01-29T12:42:18;31.37;;;16.20;;
66189;SDS011;52992;52.084;5.412;2023-01-29T12:44:53;33.50;;;16.90;;
66189;SDS011;52992;52.084;5.412;2023-01-29T12:47:59;32.20;;;17.00;;
66189;SDS011;52992;52.084;5.412;2023-01-29T12:50:23;32.97;;;16.63;;
66189;SDS011;52992;52.084;5.412;2023-01-29T12:55:41;35.30;;;17.80;;
66189;SDS011;52992;52.084;5.412;2023-01-29T12:58:19;32.17;;;17.27;;
66189;SDS011;52992;52.084;5.412;2023-01-29T13:00:50;32.20;;;17.23;;
66189;SDS011;52992;52.084;5.412;2023-01-29T13:03:24;32.40;;;17.20;;
66189;SDS011;52992;52.084;5.412;2023-01-29T13:05:59;33.77;;;16.60;;
66189;SDS011;52992;52.084;5.412;2023-01-29T13:08:42;34.63;;;17.77;;
66189;SDS011;52992;52.084;5.412;2023-01-29T13:11:17;31.80;;;16.97;;
66189;SDS011;52992;52.084;5.412;2023-01-29T13:14:05;31.87;;;17.63;;
66189;SDS011;52992;52.084;5.412;2023-01-29T13:16:44;31.30;;;17.10;;
66189;SDS011;52992;52.084;5.412;2023-01-29T13:19:26;33.50;;;17.87;;
66189;SDS011;52992;52.084;5.412;2023-01-29T13:21:58;32.80;;;17.27;;
66189;SDS011;52992;52.084;5.412;2023-01-29T13:24:32;36.80;;;17.87;;
66189;SDS011;52992;52.084;5.412;2023-01-29T13:27:05;34.87;;;18.63;;
66189;SDS011;52992;52.084;5.412;2023-01-29T13:29:32;32.57;;;17.97;;
66189;SDS011;52992;52.084;5.412;2023-01-29T13:32:01;35.30;;;17.07;;
66189;SDS011;52992;52.084;5.412;2023-01-29T13:34:30;30.57;;;17.80;;
66189;SDS011;52992;52.084;5.412;2023-01-29T13:37:01;35.10;;;18.10;;
66189;SDS011;52992;52.084;5.412;2023-01-29T13:39:34;31.63;;;17.50;;
66189;SDS011;52992;52.084;5.412;2023-01-29T13:42:14;35.43;;;18.70;;
66189;SDS011;52992;52.084;5.412;2023-01-29T13:44:44;34.30;;;18.10;;
66189;SDS011;52992;52.084;5.412;2023-01-29T13:47:30;34.73;;;17.73;;
66189;SDS011;52992;52.084;5.412;2023-01-29T13:52:42;30.90;;;17.00;;
66189;SDS011;52992;52.084;5.412;2023-01-29T13:55:22;30.70;;;16.67;;
66189;SDS011;52992;52.084;5.412;2023-01-29T13:57:59;29.10;;;16.47;;
66189;SDS011;52992;52.084;5.412;2023-01-29T14:07:59;31.77;;;16.97;;
66189;SDS011;52992;52.084;5.412;2023-01-29T14:10:39;29.33;;;17.33;;
66189;SDS011;52992;52.084;5.412;2023-01-29T14:15:44;38.93;;;20.77;;
66189;SDS011;52992;52.084;5.412;2023-01-29T14:18:31;30.13;;;16.23;;
66189;SDS011;52992;52.084;5.412;2023-01-29T14:21:16;30.87;;;15.23;;
66189;SDS011;52992;52.084;5.412;2023-01-29T14:23:47;31.97;;;16.03;;
66189;SDS011;52992;52.084;5.412;2023-01-29T14:26:20;31.23;;;17.07;;
66189;SDS011;52992;52.084;5.412;2023-01-29T14:29:02;36.10;;;17.67;;
66189;SDS011;52992;52.084;5.412;2023-01-29T14:34:02;30.17;;;16.07;;
66189;SDS011;52992;52.084;5.412;2023-01-29T14:36:37;33.50;;;16.70;;
66189;SDS011;52992;52.084;5.412;2023-01-29T14:39:17;28.63;;;14.90;;
66189;SDS011;52992;52.084;5.412;2023-01-29T14:42:01;32.20;;;15.93;;
66189;SDS011;52992;52.084;5.412;2023-01-29T14:47:17;33.77;;;17.00;;
66189;SDS011;52992;52.084;5.412;2023-01-29T14:52:59;30.73;;;15.70;;
66189;SDS011;52992;52.084;5.412;2023-01-29T14:55:43;30.23;;;16.03;;
66189;SDS011;52992;52.084;5.412;2023-01-29T14:58:44;28.33;;;15.17;;
66189;SDS011;52992;52.084;5.412;2023-01-29T15:01:18;27.47;;;15.30;;
66189;SDS011;52992;52.084;5.412;2023-01-29T15:03:59;28.63;;;15.07;;
66189;SDS011;52992;52.084;5.412;2023-01-29T15:06:34;28.40;;;15.17;;
66189;SDS011;52992;52.084;5.412;2023-01-29T15:09:12;30.67;;;15.33;;
66189;SDS011;52992;52.084;5.412;2023-01-29T15:11:46;31.33;;;15.93;;
66189;SDS011;52992;52.084;5.412;2023-01-29T15:14:20;32.37;;;15.77;;
66189;SDS011;52992;52.084;5.412;2023-01-29T15:17:06;28.17;;;14.83;;
66189;SDS011;52992;52.084;5.412;2023-01-29T15:19:45;28.77;;;15.60;;
66189;SDS011;52992;52.084;5.412;2023-01-29T15:22:19;35.83;;;15.73;;
66189;SDS011;52992;52.084;5.412;2023-01-29T15:25:02;31.67;;;16.57;;
66189;SDS011;52992;52.084;5.412;2023-01-29T15:27:35;30.50;;;14.83;;
66189;SDS011;52992;52.084;5.412;2023-01-29T15:30:11;28.87;;;14.77;;
66189;SDS011;52992;52.084;5.412;2023-01-29T15:32:41;30.43;;;15.47;;
66189;SDS011;52992;52.084;5.412;2023-01-29T15:38:05;28.80;;;15.03;;
66189;SDS011;52992;52.084;5.412;2023-01-29T15:40:40;28.37;;;15.33;;
66189;SDS011;52992;52.084;5.412;2023-01-29T15:43:20;26.80;;;15.70;;
66189;SDS011;52992;52.084;5.412;2023-01-29T15:45:48;36.13;;;15.37;;
66189;SDS011;52992;52.084;5.412;2023-01-29T15:48:19;29.67;;;15.80;;
66189;SDS011;52992;52.084;5.412;2023-01-29T15:50:52;29.47;;;16.03;;
66189;SDS011;52992;52.084;5.412;2023-01-29T15:53:20;31.23;;;15.77;;
66189;SDS011;52992;52.084;5.412;2023-01-29T15:55:52;29.80;;;14.43;;
66189;SDS011;52992;52.084;5.412;2023-01-29T15:58:23;28.67;;;14.03;;
66189;SDS011;52992;52.084;5.412;2023-01-29T16:00:55;30.53;;;14.90;;
66189;SDS011;52992;52.084;5.412;2023-01-29T16:03:25;26.30;;;14.60;;
66189;SDS011;52992;52.084;5.412;2023-01-29T16:05:55;25.53;;;13.97;;
66189;SDS011;52992;52.084;5.412;2023-01-29T16:08:23;25.60;;;14.57;;
66189;SDS011;52992;52.084;5.412;2023-01-29T16:10:56;26.80;;;15.17;;
66189;SDS011;52992;52.084;5.412;2023-01-29T16:13:32;28.53;;;14.30;;
66189;SDS011;52992;52.084;5.412;2023-01-29T16:18:50;31.13;;;14.00;;
66189;SDS011;52992;52.084;5.412;2023-01-29T16:21:30;28.37;;;14.43;;
66189;SDS011;52992;52.084;5.412;2023-01-29T16:24:04;27.70;;;14.63;;
66189;SDS011;52992;52.084;5.412;2023-01-29T16:26:38;27.03;;;14.03;;
66189;SDS011;52992;52.084;5.412;2023-01-29T16:29:11;29.43;;;15.37;;
66189;SDS011;52992;52.084;5.412;2023-01-29T16:31:41;25.80;;;14.13;;
66189;SDS011;52992;52.084;5.412;2023-01-29T16:34:13;27.57;;;14.10;;
66189;SDS011;52992;52.084;5.412;2023-01-29T16:36:49;28.23;;;15.37;;
66189;SDS011;52992;52.084;5.412;2023-01-29T16:39:20;32.80;;;15.80;;
66189;SDS011;52992;52.084;5.412;2023-01-29T16:44:36;29.80;;;15.70;;
66189;SDS011;52992;52.084;5.412;2023-01-29T16:47:12;32.73;;;16.60;;
66189;SDS011;52992;52.084;5.412;2023-01-29T16:49:45;36.23;;;17.53;;
66189;SDS011;52992;52.084;5.412;2023-01-29T16:52:15;31.30;;;16.33;;
66189;SDS011;52992;52.084;5.412;2023-01-29T16:54:44;30.57;;;15.37;;
66189;SDS011;52992;52.084;5.412;2023-01-29T16:57:15;35.23;;;18.20;;
66189;SDS011;52992;52.084;5.412;2023-01-29T16:59:46;34.07;;;16.37;;
66189;SDS011;52992;52.084;5.412;2023-01-29T17:02:20;37.53;;;16.83;;
66189;SDS011;52992;52.084;5.412;2023-01-29T17:04:51;35.63;;;16.67;;